createdAt,value
2023-01-19T00:00:43.929Z,99440.88
2023-01-19T00:01:46.154Z,99443.66
2023-01-19T00:02:48.754Z,99451.47
2023-01-19T00:03:51.241Z,99450.59
2023-01-19T00:04:53.470Z,99451.56
2023-01-19T00:05:55.898Z,99451.59
2023-01-19T00:06:58.145Z,99460.34
2023-01-19T00:08:14.746Z,99460.44
2023-01-19T00:09:17.279Z,99462.94
2023-01-19T00:10:19.539Z,99460.34
2023-01-19T00:11:21.781Z,99473.69
2023-01-19T00:12:24.522Z,99463.16
2023-01-19T00:13:26.764Z,99464.00
2023-01-19T00:14:28.949Z,99464.84
2023-01-19T00:15:31.208Z,99470.03
2023-01-19T00:16:33.633Z,99472.75
2023-01-19T00:17:35.893Z,99470.16
2023-01-19T00:18:38.108Z,99470.22
2023-01-19T00:19:40.266Z,99468.38
2023-01-19T00:20:44.887Z,99476.34
2023-01-19T00:21:47.273Z,99479.00
2023-01-19T00:22:50.986Z,99479.97
2023-01-19T00:23:53.228Z,99473.84
2023-01-19T00:24:55.647Z,99478.22
2023-01-19T00:25:58.022Z,99472.06
2023-01-19T00:27:01.645Z,99476.38
2023-01-19T00:28:04.387Z,99484.28
2023-01-19T00:29:07.926Z,99480.75
2023-01-19T00:30:10.737Z,99484.28
2023-01-19T00:31:13.085Z,99489.56
2023-01-19T00:32:15.370Z,99480.00
2023-01-19T00:33:17.791Z,99487.03
2023-01-19T00:34:20.205Z,99492.44
2023-01-19T00:35:22.421Z,99497.84
2023-01-19T00:36:24.773Z,99492.53
2023-01-19T00:37:27.132Z,99503.19
2023-01-19T00:38:29.286Z,99494.31
2023-01-19T00:39:31.787Z,99498.69
2023-01-19T00:40:33.955Z,99495.97
2023-01-19T00:41:55.222Z,99505.59
2023-01-19T00:42:57.765Z,99503.00
2023-01-19T00:44:00.294Z,99509.16
2023-01-19T00:45:02.673Z,99504.81
2023-01-19T00:46:04.980Z,99503.91
2023-01-19T00:47:07.410Z,99505.72
2023-01-19T00:48:09.843Z,99503.91
2023-01-19T00:49:12.200Z,99502.97
2023-01-19T00:50:19.035Z,99497.84
2023-01-19T00:51:21.489Z,99499.69
2023-01-19T00:52:23.689Z,99497.06
2023-01-19T00:53:26.491Z,99498.00
2023-01-19T00:54:28.661Z,99499.81
2023-01-19T00:55:33.540Z,99503.34
2023-01-19T00:56:36.611Z,99505.81
2023-01-19T00:57:40.175Z,99506.09
2023-01-19T00:58:42.357Z,99506.91
2023-01-19T00:59:44.881Z,99506.94
2023-01-19T01:00:47.354Z,99503.47
2023-01-19T01:01:49.685Z,99501.78
2023-01-19T01:02:53.205Z,99510.59
2023-01-19T01:03:55.972Z,99521.91
2023-01-19T01:04:58.199Z,99523.78
2023-01-19T01:06:00.498Z,99515.91
2023-01-19T01:07:03.129Z,99522.03
2023-01-19T01:08:05.518Z,99521.13
2023-01-19T01:09:11.954Z,99532.66
2023-01-19T01:10:20.842Z,99529.28
2023-01-19T01:11:23.207Z,99532.72
2023-01-19T01:12:28.645Z,99537.03
2023-01-19T01:13:31.740Z,99529.16
2023-01-19T01:14:34.382Z,99529.16
2023-01-19T01:15:36.565Z,99530.94
2023-01-19T01:16:40.259Z,99531.88
2023-01-19T01:17:47.527Z,99534.50
2023-01-19T01:18:49.725Z,99534.41
2023-01-19T01:19:52.580Z,99531.03
2023-01-19T01:21:04.456Z,99538.09
2023-01-19T01:22:07.779Z,99536.28
2023-01-19T01:23:10.623Z,99541.63
2023-01-19T01:24:12.888Z,99541.69
2023-01-19T01:25:17.403Z,99547.88
2023-01-19T01:26:19.679Z,99549.72
2023-01-19T01:27:21.991Z,99543.47
2023-01-19T01:28:24.677Z,99547.03
2023-01-19T01:29:26.864Z,99544.44
2023-01-19T01:30:29.032Z,99543.59
2023-01-19T01:31:31.643Z,99551.41
2023-01-19T01:32:33.944Z,99548.72
2023-01-19T01:33:40.975Z,99547.84
2023-01-19T01:34:44.197Z,99550.50
2023-01-19T01:35:47.164Z,99554.03
2023-01-19T01:36:49.559Z,99551.34
2023-01-19T01:37:51.770Z,99563.66
2023-01-19T01:38:54.442Z,99553.13
2023-01-19T01:39:56.679Z,99556.75
2023-01-19T01:40:58.902Z,99558.63
2023-01-19T01:42:01.140Z,99560.31
2023-01-19T01:43:03.741Z,99555.00
2023-01-19T01:44:50.060Z,99558.53
2023-01-19T01:45:57.806Z,99553.38
2023-01-19T01:47:00.837Z,99553.47
2023-01-19T01:48:09.868Z,99553.31
2023-01-19T01:49:16.824Z,99548.13
2023-01-19T01:50:25.260Z,99540.31
2023-01-19T01:51:42.325Z,99548.34
2023-01-19T01:53:07.699Z,99546.50
2023-01-19T01:54:13.300Z,99551.84
2023-01-19T01:55:17.349Z,99543.09
2023-01-19T01:56:24.245Z,99547.50
2023-01-19T01:57:28.136Z,99547.50
2023-01-19T01:58:33.112Z,99539.56
2023-01-19T01:59:40.126Z,99548.28
2023-01-19T02:01:01.118Z,99543.81
2023-01-19T02:02:28.396Z,99543.88
2023-01-19T02:03:33.154Z,99543.00
2023-01-19T02:04:35.372Z,99544.81
2023-01-19T02:05:37.990Z,99549.19
2023-01-19T02:06:58.944Z,99549.13
2023-01-19T02:08:31.212Z,99545.66
2023-01-19T02:09:55.418Z,99558.00
2023-01-19T02:11:17.825Z,99551.91
2023-01-19T02:12:38.779Z,99552.78
2023-01-19T02:13:43.870Z,99558.09
2023-01-19T02:14:45.966Z,99563.41
2023-01-19T02:15:54.197Z,99561.63
2023-01-19T02:16:56.846Z,99560.75
2023-01-19T02:17:59.227Z,99562.56
2023-01-19T02:19:01.478Z,99558.25
2023-01-19T02:20:03.919Z,99565.28
2023-01-19T02:21:10.667Z,99568.84
2023-01-19T02:22:20.398Z,99570.47
2023-01-19T02:23:44.390Z,99566.94
2023-01-19T02:24:46.788Z,99566.91
2023-01-19T02:25:49.708Z,99571.38
2023-01-19T02:26:52.403Z,99573.22
2023-01-19T02:27:55.076Z,99573.31
2023-01-19T02:29:21.391Z,99577.72
2023-01-19T02:30:24.167Z,99568.13
2023-01-19T02:31:28.799Z,99574.22
2023-01-19T02:32:31.389Z,99573.38
2023-01-19T02:33:33.889Z,99569.03
2023-01-19T02:34:36.428Z,99575.09
2023-01-19T02:35:40.530Z,99575.94
2023-01-19T02:37:06.850Z,99575.09
2023-01-19T02:38:11.871Z,99576.06
2023-01-19T02:39:15.928Z,99576.91
2023-01-19T02:40:21.044Z,99576.97
2023-01-19T02:41:28.507Z,99573.50
2023-01-19T02:42:45.029Z,99572.56
2023-01-19T02:43:49.224Z,99573.47
2023-01-19T02:44:54.877Z,99570.81
2023-01-19T02:45:57.523Z,99576.06
2023-01-19T02:47:03.996Z,99575.19
2023-01-19T02:48:07.255Z,99572.63
2023-01-19T02:49:10.061Z,99576.13
2023-01-19T02:50:43.076Z,99577.03
2023-01-19T02:51:45.486Z,99570.06
2023-01-19T02:52:48.818Z,99577.09
2023-01-19T02:54:13.853Z,99572.69
2023-01-19T02:55:28.012Z,99570.00
2023-01-19T02:56:30.205Z,99576.19
2023-01-19T02:57:57.310Z,99570.06
2023-01-19T02:59:14.664Z,99576.13
2023-01-19T03:00:41.352Z,99574.47
2023-01-19T03:02:02.097Z,99577.03
2023-01-19T03:03:30.811Z,99577.94
2023-01-19T03:04:51.620Z,99584.00
2023-01-19T03:06:13.473Z,99590.13
2023-01-19T03:07:30.461Z,99591.91
2023-01-19T03:08:55.000Z,99588.41
2023-01-19T03:10:15.741Z,99585.81
2023-01-19T03:11:18.679Z,99588.50
2023-01-19T03:12:26.822Z,99588.47
2023-01-19T03:13:41.573Z,99595.50
2023-01-19T03:14:48.169Z,99593.78
2023-01-19T03:15:56.036Z,99593.75
2023-01-19T03:17:01.447Z,99583.25
2023-01-19T03:18:08.240Z,99587.66
2023-01-19T03:19:20.393Z,99585.09
2023-01-19T03:20:25.466Z,99584.22
2023-01-19T03:21:32.592Z,99592.03
2023-01-19T03:22:35.124Z,99588.50
2023-01-19T03:23:42.176Z,99594.63
2023-01-19T03:24:47.821Z,99593.75
2023-01-19T03:25:53.008Z,99606.91
2023-01-19T03:27:04.400Z,99599.13
2023-01-19T03:28:06.785Z,99603.47
2023-01-19T03:29:11.767Z,99606.03
2023-01-19T03:30:23.046Z,99606.03
2023-01-19T03:31:29.053Z,99605.19
2023-01-19T03:32:36.885Z,99594.72
2023-01-19T03:33:45.026Z,99593.81
2023-01-19T03:34:50.237Z,99593.00
2023-01-19T03:36:03.733Z,99592.16
2023-01-19T03:37:10.091Z,99590.47
2023-01-19T03:38:17.226Z,99590.44
2023-01-19T03:39:23.154Z,99581.69
2023-01-19T03:40:32.471Z,99587.00
2023-01-19T03:41:37.664Z,99591.34
2023-01-19T03:42:41.273Z,99594.88
2023-01-19T03:43:45.132Z,99592.25
2023-01-19T03:44:50.645Z,99593.97
2023-01-19T03:45:55.328Z,99593.09
2023-01-19T03:46:59.792Z,99597.44
2023-01-19T03:48:02.381Z,99593.06
2023-01-19T03:49:05.012Z,99596.59
2023-01-19T03:50:14.286Z,99596.63
2023-01-19T03:51:17.977Z,99593.16
2023-01-19T03:52:32.548Z,99605.31
2023-01-19T03:53:35.303Z,99599.25
2023-01-19T03:54:37.712Z,99609.81
2023-01-19T03:55:42.685Z,99607.19
2023-01-19T03:56:44.975Z,99604.56
2023-01-19T03:57:47.156Z,99608.97
2023-01-19T03:58:50.009Z,99613.38
2023-01-19T03:59:53.400Z,99608.97
2023-01-19T04:00:55.885Z,99607.22
2023-01-19T04:01:58.167Z,99606.34
2023-01-19T04:03:00.946Z,99612.47
2023-01-19T04:04:03.424Z,99606.34
2023-01-19T04:05:06.000Z,99609.84
2023-01-19T04:06:09.989Z,99610.72
2023-01-19T04:07:12.231Z,99602.78
2023-01-19T04:08:14.598Z,99605.41
2023-01-19T04:09:18.593Z,99606.25
2023-01-19T04:10:22.391Z,99598.41
2023-01-19T04:11:24.860Z,99603.72
2023-01-19T04:12:27.266Z,99607.22
2023-01-19T04:13:30.489Z,99606.31
2023-01-19T04:14:33.039Z,99606.31
2023-01-19T04:15:35.227Z,99609.84
2023-01-19T04:16:37.654Z,99608.09
2023-01-19T04:17:40.067Z,99613.38
2023-01-19T04:18:42.445Z,99608.97
2023-01-19T04:19:45.247Z,99614.22
2023-01-19T04:20:47.426Z,99609.84
2023-01-19T04:21:50.917Z,99609.84
2023-01-19T04:22:53.094Z,99615.94
2023-01-19T04:23:55.263Z,99620.31
2023-01-19T04:24:57.600Z,99610.63
2023-01-19T04:26:05.180Z,99609.81
2023-01-19T04:27:07.565Z,99608.94
2023-01-19T04:28:09.767Z,99614.19
2023-01-19T04:29:14.049Z,99616.81
2023-01-19T04:30:17.007Z,99616.78
2023-01-19T04:31:19.539Z,99615.09
2023-01-19T04:32:21.934Z,99616.88
2023-01-19T04:33:24.602Z,99616.88
2023-01-19T04:34:26.756Z,99622.19
2023-01-19T04:35:29.339Z,99616.06
2023-01-19T04:36:31.685Z,99617.88
2023-01-19T04:37:33.936Z,99618.75
2023-01-19T04:38:36.299Z,99615.22
2023-01-19T04:39:38.464Z,99620.47
2023-01-19T04:40:40.889Z,99625.69
2023-01-19T04:41:43.630Z,99618.72
2023-01-19T04:42:46.471Z,99626.56
2023-01-19T04:43:49.263Z,99626.53
2023-01-19T04:44:52.563Z,99617.78
2023-01-19T04:45:54.935Z,99622.19
2023-01-19T04:46:57.189Z,99626.56
2023-01-19T04:47:59.603Z,99626.53
2023-01-19T04:49:02.031Z,99626.53
2023-01-19T04:50:05.887Z,99630.91
2023-01-19T04:51:08.820Z,99640.50
2023-01-19T04:52:11.322Z,99635.25
2023-01-19T04:53:14.540Z,99631.78
2023-01-19T04:54:16.742Z,99635.31
2023-01-19T04:55:19.795Z,99638.84
2023-01-19T04:56:21.987Z,99641.47
2023-01-19T04:57:24.416Z,99636.22
2023-01-19T04:58:26.685Z,99633.63
2023-01-19T04:59:28.978Z,99640.63
2023-01-19T05:00:31.588Z,99638.88
2023-01-19T05:01:33.886Z,99631.91
2023-01-19T05:02:36.602Z,99634.50
2023-01-19T05:03:40.225Z,99624.88
2023-01-19T05:04:42.437Z,99627.50
2023-01-19T05:05:44.827Z,99633.59
2023-01-19T05:06:46.965Z,99630.13
2023-01-19T05:07:49.535Z,99629.25
2023-01-19T05:08:51.711Z,99623.09
2023-01-19T05:09:53.984Z,99625.72
2023-01-19T05:10:57.607Z,99622.22
2023-01-19T05:11:59.760Z,99616.03
2023-01-19T05:13:02.853Z,99618.66
2023-01-19T05:14:05.293Z,99614.28
2023-01-19T05:15:09.558Z,99614.31
2023-01-19T05:16:14.006Z,99612.50
2023-01-19T05:17:16.411Z,99612.50
2023-01-19T05:18:18.871Z,99612.53
2023-01-19T05:19:21.224Z,99620.41
2023-01-19T05:20:23.933Z,99624.81
2023-01-19T05:21:26.622Z,99630.94
2023-01-19T05:22:28.804Z,99622.22
2023-01-19T05:23:32.606Z,99623.06
2023-01-19T05:24:35.451Z,99612.56
2023-01-19T05:25:38.720Z,99609.94
2023-01-19T05:26:41.632Z,99616.09
2023-01-19T05:27:44.732Z,99622.25
2023-01-19T05:28:46.962Z,99618.75
2023-01-19T05:29:49.396Z,99614.34
2023-01-19T05:30:51.883Z,99613.50
2023-01-19T05:31:54.266Z,99621.41
2023-01-19T05:32:56.527Z,99623.16
2023-01-19T05:33:58.673Z,99624.88
2023-01-19T05:35:01.100Z,99626.63
2023-01-19T05:36:04.365Z,99626.63
2023-01-19T05:37:06.778Z,99620.50
2023-01-19T05:38:09.409Z,99624.88
2023-01-19T05:39:11.647Z,99615.28
2023-01-19T05:40:14.051Z,99620.53
2023-01-19T05:41:17.654Z,99624.91
2023-01-19T05:42:19.901Z,99622.28
2023-01-19T05:43:22.270Z,99612.66
2023-01-19T05:44:24.439Z,99617.03
2023-01-19T05:45:28.344Z,99618.78
2023-01-19T05:46:33.609Z,99622.28
2023-01-19T05:47:35.903Z,99613.50
2023-01-19T05:48:38.642Z,99612.59
2023-01-19T05:49:40.860Z,99617.03
2023-01-19T05:50:43.325Z,99624.03
2023-01-19T05:51:45.730Z,99617.06
2023-01-19T05:52:47.984Z,99610.88
2023-01-19T05:53:50.527Z,99617.84
2023-01-19T05:54:54.599Z,99610.84
2023-01-19T05:56:05.755Z,99615.19
2023-01-19T05:57:09.260Z,99616.06
2023-01-19T05:58:11.616Z,99615.19
2023-01-19T05:59:15.269Z,99613.47
2023-01-19T06:00:17.747Z,99610.00
2023-01-19T06:01:19.926Z,99611.72
2023-01-19T06:02:28.506Z,99609.09
2023-01-19T06:03:31.802Z,99615.19
2023-01-19T06:04:34.163Z,99613.47
2023-01-19T06:05:38.425Z,99616.09
2023-01-19T06:06:41.030Z,99623.94
2023-01-19T06:07:43.254Z,99621.34
2023-01-19T06:08:45.901Z,99617.03
2023-01-19T06:09:48.092Z,99618.72
2023-01-19T06:10:50.488Z,99623.06
2023-01-19T06:11:54.194Z,99618.75
2023-01-19T06:12:56.541Z,99632.72
2023-01-19T06:13:58.829Z,99633.59
2023-01-19T06:15:01.031Z,99631.88
2023-01-19T06:16:03.646Z,99627.47
2023-01-19T06:17:06.703Z,99620.47
2023-01-19T06:18:09.498Z,99628.38
2023-01-19T06:19:11.833Z,99628.38
2023-01-19T06:20:14.196Z,99636.25
2023-01-19T06:21:16.611Z,99635.38
2023-01-19T06:22:18.743Z,99645.91
2023-01-19T06:23:21.030Z,99642.38
2023-01-19T06:24:24.300Z,99644.97
2023-01-19T06:25:26.492Z,99640.66
2023-01-19T06:26:29.141Z,99645.03
2023-01-19T06:27:31.427Z,99643.28
2023-01-19T06:28:33.610Z,99645.03
2023-01-19T06:29:36.196Z,99638.94
2023-01-19T06:30:38.477Z,99639.75
2023-01-19T06:31:41.778Z,99644.09
2023-01-19T06:32:44.266Z,99643.13
2023-01-19T06:33:46.707Z,99638.72
2023-01-19T06:34:49.262Z,99646.50
2023-01-19T06:35:52.473Z,99646.44
2023-01-19T06:36:58.290Z,99642.94
2023-01-19T06:38:00.444Z,99650.78
2023-01-19T06:39:06.021Z,99649.06
2023-01-19T06:40:08.888Z,99653.50
2023-01-19T06:41:11.060Z,99663.22
2023-01-19T06:42:13.281Z,99658.88
2023-01-19T06:43:15.500Z,99659.81
2023-01-19T06:44:17.901Z,99671.19
2023-01-19T06:45:20.120Z,99665.09
2023-01-19T06:46:22.308Z,99662.44
2023-01-19T06:47:24.533Z,99667.69
2023-01-19T06:48:27.247Z,99665.09
2023-01-19T06:49:29.607Z,99673.88
2023-01-19T06:50:32.011Z,99665.16
2023-01-19T06:51:34.438Z,99666.03
2023-01-19T06:52:42.212Z,99668.63
2023-01-19T06:53:44.730Z,99664.28
2023-01-19T06:54:47.184Z,99660.78
2023-01-19T06:55:49.373Z,99665.19
2023-01-19T06:56:52.648Z,99655.53
2023-01-19T06:58:01.323Z,99662.53
2023-01-19T06:59:03.592Z,99667.81
2023-01-19T07:00:08.419Z,99655.56
2023-01-19T07:01:10.840Z,99660.78
2023-01-19T07:02:26.571Z,99666.91
2023-01-19T07:03:30.554Z,99675.66
2023-01-19T07:04:34.114Z,99675.66
2023-01-19T07:05:36.495Z,99674.84
2023-01-19T07:06:38.687Z,99680.91
2023-01-19T07:07:42.507Z,99680.06
2023-01-19T07:08:44.754Z,99687.06
2023-01-19T07:09:47.319Z,99684.44
2023-01-19T07:11:26.140Z,99691.38
2023-01-19T07:12:12.656Z,99688.78
2023-01-19T07:13:15.835Z,99687.94
2023-01-19T07:14:17.976Z,99681.81
2023-01-19T07:15:21.739Z,99691.44
2023-01-19T07:16:24.057Z,99691.41
2023-01-19T07:17:26.482Z,99685.31
2023-01-19T07:18:28.871Z,99689.69
2023-01-19T07:19:31.224Z,99683.56
2023-01-19T07:20:37.614Z,99693.19
2023-01-19T07:21:39.961Z,99689.66
2023-01-19T07:22:46.626Z,99694.06
2023-01-19T07:23:50.165Z,99696.69
2023-01-19T07:24:52.327Z,99695.84
2023-01-19T07:25:54.661Z,99691.47
2023-01-19T07:26:56.967Z,99691.47
2023-01-19T07:28:00.104Z,99692.34
2023-01-19T07:29:02.560Z,99703.69
2023-01-19T07:30:11.480Z,99695.81
2023-01-19T07:31:14.550Z,99693.22
2023-01-19T07:32:16.834Z,99698.47
2023-01-19T07:33:18.994Z,99701.94
2023-01-19T07:34:21.494Z,99704.56
2023-01-19T07:35:27.035Z,99709.81
2023-01-19T07:36:29.423Z,99713.31
2023-01-19T07:37:31.646Z,99715.91
2023-01-19T07:38:33.857Z,99713.28
2023-01-19T07:39:36.707Z,99720.31
2023-01-19T07:40:39.148Z,99715.06
2023-01-19T07:41:41.344Z,99714.19
2023-01-19T07:42:51.011Z,99714.19
2023-01-19T07:43:53.243Z,99728.16
2023-01-19T07:44:55.424Z,99726.41
2023-01-19T07:45:59.424Z,99724.66
2023-01-19T07:47:01.597Z,99724.66
2023-01-19T07:48:03.899Z,99722.03
2023-01-19T07:49:06.268Z,99726.41
2023-01-19T07:50:09.198Z,99724.66
2023-01-19T07:51:19.029Z,99724.63
2023-01-19T07:52:22.924Z,99726.38
2023-01-19T07:53:25.092Z,99724.66
2023-01-19T07:54:27.507Z,99728.13
2023-01-19T07:55:29.818Z,99723.78
2023-01-19T07:56:33.893Z,99727.25
2023-01-19T07:57:36.625Z,99732.50
2023-01-19T07:58:39.271Z,99724.63
2023-01-19T07:59:41.628Z,99725.47
2023-01-19T08:00:43.843Z,99734.19
2023-01-19T08:01:46.505Z,99739.44
2023-01-19T08:02:51.847Z,99727.19
2023-01-19T08:03:54.075Z,99725.44
2023-01-19T08:04:56.625Z,99726.31
2023-01-19T08:05:59.900Z,99731.50
2023-01-19T08:07:02.492Z,99726.31
2023-01-19T08:08:05.573Z,99737.66
2023-01-19T08:09:08.474Z,99738.50
2023-01-19T08:10:15.636Z,99733.22
2023-01-19T08:11:17.826Z,99737.59
2023-01-19T08:12:20.075Z,99733.19
2023-01-19T08:13:22.476Z,99733.16
2023-01-19T08:14:24.692Z,99731.41
2023-01-19T08:15:27.225Z,99735.78
2023-01-19T08:16:29.476Z,99725.28
2023-01-19T08:17:31.848Z,99724.38
2023-01-19T08:18:34.102Z,99734.88
2023-01-19T08:19:36.262Z,99733.94
2023-01-19T08:20:38.536Z,99740.94
2023-01-19T08:21:41.131Z,99734.72
2023-01-19T08:22:43.534Z,99736.31
2023-01-19T08:23:52.793Z,99735.25
2023-01-19T08:24:55.031Z,99731.69
2023-01-19T08:25:57.248Z,99735.16
2023-01-19T08:27:01.188Z,99736.06
2023-01-19T08:28:05.441Z,99736.84
2023-01-19T08:29:07.620Z,99735.03
2023-01-19T08:30:10.595Z,99741.06
2023-01-19T08:31:20.356Z,99736.69
2023-01-19T08:32:25.119Z,99739.16
2023-01-19T08:33:27.322Z,99737.41
2023-01-19T08:34:32.427Z,99741.81
2023-01-19T08:35:37.479Z,99735.69
2023-01-19T08:36:39.617Z,99740.16
2023-01-19T08:37:41.812Z,99733.13
2023-01-19T08:38:47.673Z,99735.75
2023-01-19T08:39:50.080Z,99739.25
2023-01-19T08:40:52.236Z,99735.75
2023-01-19T08:41:54.538Z,99734.88
2023-01-19T08:43:03.619Z,99734.81
2023-01-19T08:44:06.011Z,99740.84
2023-01-19T08:45:09.330Z,99742.53
2023-01-19T08:46:12.052Z,99741.59
2023-01-19T08:47:14.335Z,99737.34
2023-01-19T08:48:19.320Z,99738.09
2023-01-19T08:49:21.494Z,99742.16
2023-01-19T08:50:23.695Z,99740.28
2023-01-19T08:51:26.096Z,99740.97
2023-01-19T08:52:29.352Z,99736.47
2023-01-19T08:53:31.804Z,99736.38
2023-01-19T08:54:33.973Z,99737.13
2023-01-19T08:55:36.531Z,99743.19
2023-01-19T08:56:38.856Z,99749.34
2023-01-19T08:57:41.040Z,99748.47
2023-01-19T08:58:45.710Z,99739.50
2023-01-19T08:59:47.995Z,99740.25
2023-01-19T09:00:52.526Z,99737.63
2023-01-19T09:01:55.118Z,99742.78
2023-01-19T09:02:57.885Z,99748.16
2023-01-19T09:04:00.228Z,99757.84
2023-01-19T09:05:02.463Z,99748.16
2023-01-19T09:06:08.554Z,99754.38
2023-01-19T09:07:11.169Z,99753.31
2023-01-19T09:08:14.660Z,99749.75
2023-01-19T09:09:16.808Z,99755.84
2023-01-19T09:10:19.215Z,99760.22
2023-01-19T09:11:21.401Z,99762.00
2023-01-19T09:12:23.607Z,99757.66
2023-01-19T09:13:26.377Z,99761.03
2023-01-19T09:14:28.542Z,99762.00
2023-01-19T09:15:33.895Z,99764.63
2023-01-19T09:16:36.129Z,99767.28
2023-01-19T09:17:38.299Z,99767.34
2023-01-19T09:18:40.934Z,99765.47
2023-01-19T09:19:43.097Z,99761.09
2023-01-19T09:20:47.443Z,99764.63
2023-01-19T09:21:49.652Z,99760.19
2023-01-19T09:22:51.963Z,99770.53
2023-01-19T09:23:55.199Z,99766.09
2023-01-19T09:24:57.347Z,99768.75
2023-01-19T09:26:02.037Z,99768.81
2023-01-19T09:27:04.592Z,99762.78
2023-01-19T09:28:09.218Z,99776.19
2023-01-19T09:29:11.744Z,99766.63
2023-01-19T09:30:14.093Z,99768.41
2023-01-19T09:31:16.346Z,99769.22
2023-01-19T09:32:20.564Z,99765.94
2023-01-19T09:33:23.367Z,99772.84
2023-01-19T09:34:26.176Z,99764.25
2023-01-19T09:35:28.344Z,99767.72
2023-01-19T09:36:30.966Z,99768.50
2023-01-19T09:37:33.135Z,99771.28
2023-01-19T09:38:35.320Z,99759.84
2023-01-19T09:39:37.945Z,99774.03
2023-01-19T09:40:55.143Z,99767.81
2023-01-19T09:42:14.613Z,99767.81
2023-01-19T09:43:35.320Z,99758.22
2023-01-19T09:44:39.511Z,99759.91
2023-01-19T09:45:50.401Z,99758.06
2023-01-19T09:46:52.634Z,99762.31
2023-01-19T09:47:57.170Z,99756.94
2023-01-19T09:49:05.308Z,99750.03
2023-01-19T09:50:20.893Z,99752.69
2023-01-19T09:51:28.434Z,99758.91
2023-01-19T09:52:35.951Z,99757.03
2023-01-19T09:53:50.521Z,99756.94
2023-01-19T09:54:58.251Z,99756.13
2023-01-19T09:56:00.469Z,99750.88
2023-01-19T09:57:02.963Z,99756.97
2023-01-19T09:58:12.326Z,99756.03
2023-01-19T09:59:36.804Z,99753.41
2023-01-19T10:00:39.786Z,99754.28
2023-01-19T10:02:07.115Z,99758.66
2023-01-19T10:03:17.075Z,99755.97
2023-01-19T10:04:30.179Z,99755.09
2023-01-19T10:05:41.814Z,99756.88
2023-01-19T10:06:44.401Z,99762.09
2023-01-19T10:07:55.898Z,99760.28
2023-01-19T10:09:19.184Z,99755.00
2023-01-19T10:10:28.668Z,99764.59
2023-01-19T10:11:51.288Z,99761.34
2023-01-19T10:13:15.230Z,99766.59
2023-01-19T10:14:28.121Z,99763.97
2023-01-19T10:15:38.172Z,99764.06
2023-01-19T10:16:53.144Z,99757.97
2023-01-19T10:18:34.967Z,99773.19
2023-01-19T10:19:46.448Z,99755.59
2023-01-19T10:20:56.536Z,99758.16
2023-01-19T10:22:04.208Z,99761.69
2023-01-19T10:23:21.952Z,99758.13
2023-01-19T10:24:29.097Z,99767.66
2023-01-19T10:25:32.045Z,99762.34
2023-01-19T10:26:38.932Z,99758.66
2023-01-19T10:27:42.972Z,99749.94
2023-01-19T10:28:48.215Z,99750.81
2023-01-19T10:29:50.774Z,99745.59
2023-01-19T10:30:55.048Z,99755.97
2023-01-19T10:32:21.187Z,99754.03
2023-01-19T10:33:23.660Z,99755.78
2023-01-19T10:34:25.849Z,99750.56
2023-01-19T10:35:29.915Z,99755.00
2023-01-19T10:36:38.186Z,99750.63
2023-01-19T10:37:44.932Z,99752.34
2023-01-19T10:38:48.027Z,99748.75
2023-01-19T10:39:56.171Z,99750.50
2023-01-19T10:41:05.301Z,99742.66
2023-01-19T10:42:12.955Z,99749.81
2023-01-19T10:43:36.074Z,99751.50
2023-01-19T10:44:38.563Z,99752.47
2023-01-19T10:45:40.795Z,99749.94
2023-01-19T10:46:47.222Z,99752.44
2023-01-19T10:47:50.385Z,99748.25
2023-01-19T10:48:54.162Z,99749.84
2023-01-19T10:49:56.545Z,99751.50
2023-01-19T10:51:06.240Z,99747.19
2023-01-19T10:52:31.821Z,99740.41
2023-01-19T10:53:34.069Z,99746.47
2023-01-19T10:54:37.588Z,99751.84
2023-01-19T10:55:40.305Z,99743.00
2023-01-19T10:56:43.450Z,99736.88
2023-01-19T10:57:49.498Z,99746.47
2023-01-19T10:58:51.702Z,99736.78
2023-01-19T10:59:53.916Z,99741.06
2023-01-19T11:01:14.119Z,99747.59
2023-01-19T11:02:26.730Z,99738.75
2023-01-19T11:03:31.416Z,99742.13
2023-01-19T11:04:33.606Z,99752.69
2023-01-19T11:05:35.980Z,99754.38
2023-01-19T11:06:38.105Z,99745.50
2023-01-19T11:07:40.275Z,99753.63
2023-01-19T11:08:44.184Z,99743.13
2023-01-19T11:09:48.042Z,99739.50
2023-01-19T11:10:58.230Z,99743.81
2023-01-19T11:12:00.587Z,99745.56
2023-01-19T11:13:12.948Z,99740.22
2023-01-19T11:14:22.088Z,99745.41
2023-01-19T11:15:27.512Z,99742.34
2023-01-19T11:16:32.268Z,99749.53
2023-01-19T11:17:34.631Z,99751.16
2023-01-19T11:18:39.292Z,99744.88
2023-01-19T11:19:41.603Z,99752.59
2023-01-19T11:20:53.368Z,99741.94
2023-01-19T11:22:11.364Z,99748.91
2023-01-19T11:23:24.678Z,99738.72
2023-01-19T11:24:26.989Z,99740.38
2023-01-19T11:25:32.763Z,99744.66
2023-01-19T11:26:41.188Z,99736.72
2023-01-19T11:27:51.626Z,99744.66
2023-01-19T11:28:56.703Z,99745.38
2023-01-19T11:30:10.383Z,99739.19
2023-01-19T11:31:15.387Z,99741.72
2023-01-19T11:32:22.806Z,99751.31
2023-01-19T11:33:37.595Z,99749.63
2023-01-19T11:34:39.876Z,99747.31
2023-01-19T11:35:42.057Z,99746.25
2023-01-19T11:36:59.485Z,99743.63
2023-01-19T11:38:16.816Z,99746.28
2023-01-19T11:39:28.326Z,99746.03
2023-01-19T11:40:31.388Z,99745.06
2023-01-19T11:41:37.363Z,99740.59
2023-01-19T11:42:39.581Z,99743.31
2023-01-19T11:43:48.964Z,99732.56
2023-01-19T11:44:57.897Z,99743.97
2023-01-19T11:46:00.333Z,99743.81
2023-01-19T11:47:10.372Z,99742.16
2023-01-19T11:48:23.812Z,99742.22
2023-01-19T11:49:32.000Z,99745.00
2023-01-19T11:50:42.632Z,99743.91
2023-01-19T11:51:56.446Z,99752.91
2023-01-19T11:53:11.375Z,99744.97
2023-01-19T11:54:29.786Z,99745.81
2023-01-19T11:55:49.766Z,99753.53
2023-01-19T11:56:53.918Z,99754.41
2023-01-19T11:57:56.271Z,99745.66
2023-01-19T11:58:58.876Z,99743.31
2023-01-19T12:00:05.358Z,99748.22
2023-01-19T12:01:27.884Z,99749.69
2023-01-19T12:02:46.897Z,99745.16
2023-01-19T12:03:54.882Z,99751.19
2023-01-19T12:05:05.505Z,99744.31
2023-01-19T12:06:12.236Z,99750.41
2023-01-19T12:07:30.160Z,99743.22
2023-01-19T12:08:39.399Z,99738.94
2023-01-19T12:09:53.959Z,99745.06
2023-01-19T12:10:58.713Z,99745.72
2023-01-19T12:12:08.027Z,99738.66
2023-01-19T12:13:23.194Z,99742.13
2023-01-19T12:14:40.171Z,99737.25
2023-01-19T12:15:44.554Z,99744.06
2023-01-19T12:16:47.079Z,99735.44
2023-01-19T12:17:51.388Z,99738.94
2023-01-19T12:18:59.378Z,99738.09
2023-01-19T12:20:31.426Z,99746.84
2023-01-19T12:21:33.609Z,99741.72
2023-01-19T12:22:49.363Z,99742.59
2023-01-19T12:24:12.502Z,99740.03
2023-01-19T12:25:24.764Z,99740.78
2023-01-19T12:26:35.823Z,99742.41
2023-01-19T12:27:40.444Z,99747.56
2023-01-19T12:28:46.594Z,99741.66
2023-01-19T12:29:49.053Z,99748.59
2023-01-19T12:30:52.207Z,99748.50
2023-01-19T12:32:13.210Z,99755.69
2023-01-19T12:33:30.100Z,99749.25
2023-01-19T12:34:41.261Z,99747.38
2023-01-19T12:36:04.434Z,99747.38
2023-01-19T12:37:30.971Z,99747.44
2023-01-19T12:39:03.977Z,99746.63
2023-01-19T12:40:27.878Z,99748.25
2023-01-19T12:41:36.953Z,99733.25
2023-01-19T12:42:46.751Z,99740.09
2023-01-19T12:44:12.200Z,99738.16
2023-01-19T12:45:23.229Z,99740.94
2023-01-19T12:46:30.996Z,99739.38
2023-01-19T12:47:33.851Z,99731.59
2023-01-19T12:48:36.365Z,99736.72
2023-01-19T12:49:38.473Z,99732.25
2023-01-19T12:50:46.499Z,99727.94
2023-01-19T12:51:50.905Z,99739.50
2023-01-19T12:52:59.349Z,99730.91